sensor_id;sensor_type;location;lat;lon;timestamp;P1;durP1;ratioP1;P2;durP2;ratioP2
30896;SDS011;64229;52.246;21.054;2023-03-13T00:00:33;31.90;;;12.98;;
30896;SDS011;64229;52.246;21.054;2023-03-13T00:02:59;33.30;;;12.63;;
30896;SDS011;64229;52.246;21.054;2023-03-13T00:05:25;33.10;;;12.40;;
30896;SDS011;64229;52.246;21.054;2023-03-13T00:07:50;33.38;;;12.38;;
30896;SDS011;64229;52.246;21.054;2023-03-13T00:10:15;33.55;;;13.23;;
30896;SDS011;64229;52.246;21.054;2023-03-13T00:12:41;30.88;;;12.43;;
30896;SDS011;64229;52.246;21.054;2023-03-13T00:15:06;28.73;;;13.27;;
30896;SDS011;64229;52.246;21.054;2023-03-13T00:17:32;28.42;;;12.70;;
30896;SDS011;64229;52.246;21.054;2023-03-13T00:19:58;30.92;;;11.73;;
30896;SDS011;64229;52.246;21.054;2023-03-13T00:22:23;27.65;;;11.63;;
30896;SDS011;64229;52.246;21.054;2023-03-13T00:24:49;32.50;;;12.75;;
30896;SDS011;64229;52.246;21.054;2023-03-13T00:27:14;31.08;;;12.43;;
30896;SDS011;64229;52.246;21.054;2023-03-13T00:29:39;30.02;;;11.38;;
30896;SDS011;64229;52.246;21.054;2023-03-13T00:32:05;26.13;;;11.38;;
30896;SDS011;64229;52.246;21.054;2023-03-13T00:34:30;23.52;;;10.45;;
30896;SDS011;64229;52.246;21.054;2023-03-13T00:36:56;27.00;;;10.02;;
30896;SDS011;64229;52.246;21.054;2023-03-13T00:39:21;29.33;;;10.30;;
30896;SDS011;64229;52.246;21.054;2023-03-13T00:41:47;23.17;;;10.32;;
30896;SDS011;64229;52.246;21.054;2023-03-13T00:44:12;24.40;;;9.45;;
30896;SDS011;64229;52.246;21.054;2023-03-13T00:46:38;19.17;;;8.50;;
30896;SDS011;64229;52.246;21.054;2023-03-13T00:49:04;16.65;;;7.78;;
30896;SDS011;64229;52.246;21.054;2023-03-13T00:51:30;18.95;;;7.60;;
30896;SDS011;64229;52.246;21.054;2023-03-13T00:53:56;18.42;;;7.07;;
30896;SDS011;64229;52.246;21.054;2023-03-13T00:56:26;18.85;;;7.63;;
30896;SDS011;64229;52.246;21.054;2023-03-13T00:58:52;19.75;;;6.43;;
30896;SDS011;64229;52.246;21.054;2023-03-13T01:03:46;19.73;;;7.68;;
30896;SDS011;64229;52.246;21.054;2023-03-13T01:06:14;13.00;;;5.68;;
30896;SDS011;64229;52.246;21.054;2023-03-13T01:08:42;15.65;;;6.25;;
30896;SDS011;64229;52.246;21.054;2023-03-13T01:11:09;14.88;;;6.47;;
30896;SDS011;64229;52.246;21.054;2023-03-13T01:13:40;17.85;;;6.70;;
30896;SDS011;64229;52.246;21.054;2023-03-13T01:16:07;13.25;;;5.88;;
30896;SDS011;64229;52.246;21.054;2023-03-13T01:18:36;16.33;;;6.55;;
30896;SDS011;64229;52.246;21.054;2023-03-13T01:21:03;17.17;;;7.05;;
30896;SDS011;64229;52.246;21.054;2023-03-13T01:23:29;16.25;;;8.10;;
30896;SDS011;64229;52.246;21.054;2023-03-13T01:25:55;19.55;;;7.55;;
30896;SDS011;64229;52.246;21.054;2023-03-13T01:28:21;19.00;;;7.45;;
30896;SDS011;64229;52.246;21.054;2023-03-13T01:30:47;20.17;;;7.38;;
30896;SDS011;64229;52.246;21.054;2023-03-13T01:33:13;21.05;;;7.72;;
30896;SDS011;64229;52.246;21.054;2023-03-13T01:35:38;20.05;;;7.57;;
30896;SDS011;64229;52.246;21.054;2023-03-13T01:38:03;21.27;;;7.53;;
30896;SDS011;64229;52.246;21.054;2023-03-13T01:40:29;22.92;;;7.90;;
30896;SDS011;64229;52.246;21.054;2023-03-13T01:42:55;18.15;;;7.97;;
30896;SDS011;64229;52.246;21.054;2023-03-13T01:48:22;20.75;;;8.07;;
30896;SDS011;64229;52.246;21.054;2023-03-13T01:50:54;19.08;;;8.20;;
30896;SDS011;64229;52.246;21.054;2023-03-13T01:53:22;21.65;;;8.32;;
30896;SDS011;64229;52.246;21.054;2023-03-13T01:55:49;19.35;;;8.05;;
30896;SDS011;64229;52.246;21.054;2023-03-13T01:58:17;21.48;;;8.07;;
30896;SDS011;64229;52.246;21.054;2023-03-13T02:00:42;19.55;;;8.02;;
30896;SDS011;64229;52.246;21.054;2023-03-13T02:03:10;21.63;;;8.90;;
30896;SDS011;64229;52.246;21.054;2023-03-13T02:05:38;22.15;;;9.05;;
30896;SDS011;64229;52.246;21.054;2023-03-13T02:08:07;26.00;;;9.65;;
30896;SDS011;64229;52.246;21.054;2023-03-13T02:10:41;18.80;;;8.05;;
30896;SDS011;64229;52.246;21.054;2023-03-13T02:13:14;17.25;;;7.75;;
30896;SDS011;64229;52.246;21.054;2023-03-13T02:15:41;20.08;;;8.40;;
30896;SDS011;64229;52.246;21.054;2023-03-13T02:18:06;20.98;;;7.85;;
30896;SDS011;64229;52.246;21.054;2023-03-13T02:20:32;19.13;;;7.63;;
30896;SDS011;64229;52.246;21.054;2023-03-13T02:22:59;20.45;;;7.38;;
30896;SDS011;64229;52.246;21.054;2023-03-13T02:30:40;18.33;;;7.63;;
30896;SDS011;64229;52.246;21.054;2023-03-13T02:33:07;18.30;;;7.72;;
30896;SDS011;64229;52.246;21.054;2023-03-13T02:35:32;23.67;;;8.07;;
30896;SDS011;64229;52.246;21.054;2023-03-13T02:38:00;21.30;;;8.82;;
30896;SDS011;64229;52.246;21.054;2023-03-13T02:40:32;19.23;;;8.18;;
30896;SDS011;64229;52.246;21.054;2023-03-13T02:43:00;23.50;;;9.30;;
30896;SDS011;64229;52.246;21.054;2023-03-13T02:45:29;23.25;;;8.80;;
30896;SDS011;64229;52.246;21.054;2023-03-13T02:47:54;16.60;;;7.65;;
30896;SDS011;64229;52.246;21.054;2023-03-13T02:50:20;15.52;;;7.43;;
30896;SDS011;64229;52.246;21.054;2023-03-13T02:52:47;15.73;;;8.57;;
30896;SDS011;64229;52.246;21.054;2023-03-13T02:55:27;22.15;;;8.93;;
30896;SDS011;64229;52.246;21.054;2023-03-13T02:57:56;19.38;;;7.60;;
30896;SDS011;64229;52.246;21.054;2023-03-13T03:00:22;15.32;;;6.85;;
30896;SDS011;64229;52.246;21.054;2023-03-13T03:02:51;19.15;;;8.27;;
30896;SDS011;64229;52.246;21.054;2023-03-13T03:05:18;17.83;;;7.45;;
30896;SDS011;64229;52.246;21.054;2023-03-13T03:07:44;18.10;;;7.60;;
30896;SDS011;64229;52.246;21.054;2023-03-13T03:10:09;17.58;;;7.55;;
30896;SDS011;64229;52.246;21.054;2023-03-13T03:12:35;22.17;;;7.75;;
30896;SDS011;64229;52.246;21.054;2023-03-13T03:15:01;18.27;;;8.30;;
30896;SDS011;64229;52.246;21.054;2023-03-13T03:17:28;21.88;;;8.10;;
30896;SDS011;64229;52.246;21.054;2023-03-13T03:19:54;17.88;;;7.78;;
30896;SDS011;64229;52.246;21.054;2023-03-13T03:22:19;20.15;;;7.65;;
30896;SDS011;64229;52.246;21.054;2023-03-13T03:24:44;19.45;;;8.10;;
30896;SDS011;64229;52.246;21.054;2023-03-13T03:27:10;17.85;;;7.20;;
30896;SDS011;64229;52.246;21.054;2023-03-13T03:29:35;20.38;;;7.75;;
30896;SDS011;64229;52.246;21.054;2023-03-13T03:32:01;21.20;;;7.43;;
30896;SDS011;64229;52.246;21.054;2023-03-13T03:34:26;17.08;;;7.78;;
30896;SDS011;64229;52.246;21.054;2023-03-13T03:36:51;20.50;;;8.68;;
30896;SDS011;64229;52.246;21.054;2023-03-13T03:39:17;17.45;;;7.38;;
30896;SDS011;64229;52.246;21.054;2023-03-13T03:41:42;21.88;;;8.90;;
30896;SDS011;64229;52.246;21.054;2023-03-13T03:44:08;19.15;;;8.32;;
30896;SDS011;64229;52.246;21.054;2023-03-13T03:46:33;20.02;;;8.70;;
30896;SDS011;64229;52.246;21.054;2023-03-13T03:48:58;24.15;;;8.02;;
30896;SDS011;64229;52.246;21.054;2023-03-13T03:51:24;20.05;;;7.60;;
30896;SDS011;64229;52.246;21.054;2023-03-13T03:53:49;17.02;;;7.60;;
30896;SDS011;64229;52.246;21.054;2023-03-13T03:56:14;21.15;;;8.05;;
30896;SDS011;64229;52.246;21.054;2023-03-13T03:58:40;15.98;;;6.70;;
30896;SDS011;64229;52.246;21.054;2023-03-13T04:01:05;20.00;;;7.93;;
30896;SDS011;64229;52.246;21.054;2023-03-13T04:03:31;18.65;;;7.88;;
30896;SDS011;64229;52.246;21.054;2023-03-13T04:05:56;17.75;;;7.57;;
30896;SDS011;64229;52.246;21.054;2023-03-13T04:08:22;17.85;;;6.85;;
30896;SDS011;64229;52.246;21.054;2023-03-13T04:10:47;20.58;;;7.47;;
30896;SDS011;64229;52.246;21.054;2023-03-13T04:13:13;19.88;;;8.13;;
30896;SDS011;64229;52.246;21.054;2023-03-13T04:15:39;15.15;;;7.18;;
30896;SDS011;64229;52.246;21.054;2023-03-13T04:18:04;19.45;;;7.53;;
30896;SDS011;64229;52.246;21.054;2023-03-13T04:20:30;17.48;;;8.10;;
30896;SDS011;64229;52.246;21.054;2023-03-13T04:22:58;21.63;;;8.25;;
30896;SDS011;64229;52.246;21.054;2023-03-13T04:25:23;17.23;;;7.55;;
30896;SDS011;64229;52.246;21.054;2023-03-13T04:27:49;20.15;;;7.45;;
30896;SDS011;64229;52.246;21.054;2023-03-13T04:30:15;16.83;;;6.90;;
30896;SDS011;64229;52.246;21.054;2023-03-13T04:32:40;19.50;;;8.10;;
30896;SDS011;64229;52.246;21.054;2023-03-13T04:35:06;18.65;;;7.47;;
30896;SDS011;64229;52.246;21.054;2023-03-13T04:37:32;20.48;;;8.30;;
30896;SDS011;64229;52.246;21.054;2023-03-13T04:39:57;17.60;;;7.80;;
30896;SDS011;64229;52.246;21.054;2023-03-13T04:42:23;18.05;;;7.93;;
30896;SDS011;64229;52.246;21.054;2023-03-13T04:44:48;17.77;;;7.05;;
30896;SDS011;64229;52.246;21.054;2023-03-13T04:47:14;18.63;;;7.82;;
30896;SDS011;64229;52.246;21.054;2023-03-13T04:49:39;18.33;;;8.05;;
30896;SDS011;64229;52.246;21.054;2023-03-13T04:52:05;21.63;;;8.25;;
30896;SDS011;64229;52.246;21.054;2023-03-13T04:54:31;18.98;;;8.80;;
30896;SDS011;64229;52.246;21.054;2023-03-13T04:56:56;18.27;;;9.02;;
30896;SDS011;64229;52.246;21.054;2023-03-13T04:59:22;16.98;;;8.15;;
30896;SDS011;64229;52.246;21.054;2023-03-13T05:01:47;17.92;;;8.32;;
30896;SDS011;64229;52.246;21.054;2023-03-13T05:04:12;21.90;;;9.15;;
30896;SDS011;64229;52.246;21.054;2023-03-13T05:06:38;19.75;;;8.48;;
30896;SDS011;64229;52.246;21.054;2023-03-13T05:09:03;20.25;;;8.52;;
30896;SDS011;64229;52.246;21.054;2023-03-13T05:11:29;21.63;;;8.60;;
30896;SDS011;64229;52.246;21.054;2023-03-13T05:13:55;22.95;;;9.07;;
30896;SDS011;64229;52.246;21.054;2023-03-13T05:16:20;20.67;;;9.63;;
30896;SDS011;64229;52.246;21.054;2023-03-13T05:18:46;19.67;;;8.85;;
30896;SDS011;64229;52.246;21.054;2023-03-13T05:21:12;19.67;;;9.13;;
30896;SDS011;64229;52.246;21.054;2023-03-13T05:23:38;19.63;;;8.77;;
30896;SDS011;64229;52.246;21.054;2023-03-13T05:26:03;21.35;;;8.65;;
30896;SDS011;64229;52.246;21.054;2023-03-13T05:28:28;19.25;;;8.88;;
30896;SDS011;64229;52.246;21.054;2023-03-13T05:30:54;22.48;;;9.23;;
30896;SDS011;64229;52.246;21.054;2023-03-13T05:33:19;21.27;;;9.60;;
30896;SDS011;64229;52.246;21.054;2023-03-13T05:35:45;20.10;;;9.45;;
30896;SDS011;64229;52.246;21.054;2023-03-13T05:38:11;20.63;;;9.05;;
30896;SDS011;64229;52.246;21.054;2023-03-13T05:40:37;22.40;;;9.13;;
30896;SDS011;64229;52.246;21.054;2023-03-13T05:43:03;20.00;;;8.95;;
30896;SDS011;64229;52.246;21.054;2023-03-13T05:45:28;23.08;;;9.48;;
30896;SDS011;64229;52.246;21.054;2023-03-13T05:47:54;21.85;;;10.35;;
30896;SDS011;64229;52.246;21.054;2023-03-13T05:50:19;20.25;;;9.00;;
30896;SDS011;64229;52.246;21.054;2023-03-13T05:52:45;24.27;;;10.30;;
30896;SDS011;64229;52.246;21.054;2023-03-13T05:55:10;20.55;;;9.73;;
30896;SDS011;64229;52.246;21.054;2023-03-13T05:57:35;19.73;;;9.43;;
30896;SDS011;64229;52.246;21.054;2023-03-13T06:00:01;22.23;;;9.68;;
30896;SDS011;64229;52.246;21.054;2023-03-13T06:02:28;24.05;;;10.00;;
30896;SDS011;64229;52.246;21.054;2023-03-13T06:04:53;21.92;;;9.63;;
30896;SDS011;64229;52.246;21.054;2023-03-13T06:07:18;22.55;;;9.70;;
30896;SDS011;64229;52.246;21.054;2023-03-13T06:09:44;20.38;;;10.55;;
30896;SDS011;64229;52.246;21.054;2023-03-13T06:12:10;24.63;;;9.93;;
30896;SDS011;64229;52.246;21.054;2023-03-13T06:14:36;24.58;;;10.38;;
30896;SDS011;64229;52.246;21.054;2023-03-13T06:17:04;25.48;;;10.57;;
30896;SDS011;64229;52.246;21.054;2023-03-13T06:19:30;28.00;;;11.23;;
30896;SDS011;64229;52.246;21.054;2023-03-13T06:21:55;25.85;;;10.73;;
30896;SDS011;64229;52.246;21.054;2023-03-13T06:24:21;22.80;;;11.05;;
30896;SDS011;64229;52.246;21.054;2023-03-13T06:26:47;22.13;;;10.00;;
30896;SDS011;64229;52.246;21.054;2023-03-13T06:29:13;23.45;;;10.98;;
30896;SDS011;64229;52.246;21.054;2023-03-13T06:31:39;23.05;;;10.57;;
30896;SDS011;64229;52.246;21.054;2023-03-13T06:34:05;22.08;;;10.65;;
30896;SDS011;64229;52.246;21.054;2023-03-13T06:36:30;24.13;;;10.85;;
30896;SDS011;64229;52.246;21.054;2023-03-13T06:38:55;25.35;;;10.27;;
30896;SDS011;64229;52.246;21.054;2023-03-13T06:41:21;26.30;;;10.80;;
30896;SDS011;64229;52.246;21.054;2023-03-13T06:43:46;24.33;;;10.75;;
30896;SDS011;64229;52.246;21.054;2023-03-13T06:46:19;27.20;;;11.60;;
30896;SDS011;64229;52.246;21.054;2023-03-13T06:48:46;26.38;;;10.35;;
30896;SDS011;64229;52.246;21.054;2023-03-13T06:51:13;22.25;;;10.63;;
30896;SDS011;64229;52.246;21.054;2023-03-13T06:53:39;24.90;;;11.75;;
30896;SDS011;64229;52.246;21.054;2023-03-13T06:56:06;23.42;;;10.85;;
30896;SDS011;64229;52.246;21.054;2023-03-13T06:58:32;20.00;;;10.73;;
30896;SDS011;64229;52.246;21.054;2023-03-13T07:00:58;22.08;;;11.23;;
30896;SDS011;64229;52.246;21.054;2023-03-13T07:03:24;25.73;;;11.13;;
30896;SDS011;64229;52.246;21.054;2023-03-13T07:05:54;27.05;;;11.38;;
30896;SDS011;64229;52.246;21.054;2023-03-13T07:08:23;24.67;;;10.40;;
30896;SDS011;64229;52.246;21.054;2023-03-13T07:10:49;25.00;;;11.85;;
30896;SDS011;64229;52.246;21.054;2023-03-13T07:13:17;24.45;;;10.98;;
30896;SDS011;64229;52.246;21.054;2023-03-13T07:15:44;23.83;;;11.07;;
30896;SDS011;64229;52.246;21.054;2023-03-13T07:18:09;21.33;;;10.57;;
30896;SDS011;64229;52.246;21.054;2023-03-13T07:20:35;23.23;;;10.48;;
30896;SDS011;64229;52.246;21.054;2023-03-13T07:23:00;20.55;;;10.07;;
30896;SDS011;64229;52.246;21.054;2023-03-13T07:25:25;22.98;;;10.88;;
30896;SDS011;64229;52.246;21.054;2023-03-13T07:27:51;25.02;;;10.45;;
30896;SDS011;64229;52.246;21.054;2023-03-13T07:30:17;23.15;;;11.38;;
30896;SDS011;64229;52.246;21.054;2023-03-13T07:32:43;24.58;;;10.50;;
30896;SDS011;64229;52.246;21.054;2023-03-13T07:35:08;23.08;;;9.63;;
30896;SDS011;64229;52.246;21.054;2023-03-13T07:37:34;22.73;;;9.75;;
30896;SDS011;64229;52.246;21.054;2023-03-13T07:39:59;23.63;;;9.90;;
30896;SDS011;64229;52.246;21.054;2023-03-13T07:42:24;22.58;;;10.63;;
30896;SDS011;64229;52.246;21.054;2023-03-13T07:44:50;18.83;;;9.57;;
30896;SDS011;64229;52.246;21.054;2023-03-13T07:47:17;19.17;;;10.15;;
30896;SDS011;64229;52.246;21.054;2023-03-13T07:49:43;24.88;;;10.38;;
30896;SDS011;64229;52.246;21.054;2023-03-13T07:52:10;23.20;;;9.95;;
30896;SDS011;64229;52.246;21.054;2023-03-13T07:54:35;19.67;;;9.63;;
30896;SDS011;64229;52.246;21.054;2023-03-13T07:57:01;23.10;;;9.85;;
30896;SDS011;64229;52.246;21.054;2023-03-13T07:59:27;19.70;;;9.52;;
30896;SDS011;64229;52.246;21.054;2023-03-13T08:01:52;19.25;;;9.07;;
30896;SDS011;64229;52.246;21.054;2023-03-13T08:04:18;23.45;;;10.25;;
30896;SDS011;64229;52.246;21.054;2023-03-13T08:06:43;21.05;;;9.35;;
30896;SDS011;64229;52.246;21.054;2023-03-13T08:09:09;22.73;;;9.75;;
30896;SDS011;64229;52.246;21.054;2023-03-13T08:11:34;21.33;;;9.23;;
30896;SDS011;64229;52.246;21.054;2023-03-13T08:14:01;19.20;;;9.23;;
30896;SDS011;64229;52.246;21.054;2023-03-13T08:16:28;18.55;;;9.85;;
30896;SDS011;64229;52.246;21.054;2023-03-13T08:18:56;18.35;;;9.55;;
30896;SDS011;64229;52.246;21.054;2023-03-13T08:21:27;21.95;;;10.38;;
30896;SDS011;64229;52.246;21.054;2023-03-13T08:23:54;17.50;;;8.65;;
30896;SDS011;64229;52.246;21.054;2023-03-13T08:26:23;17.48;;;7.65;;
30896;SDS011;64229;52.246;21.054;2023-03-13T08:28:51;18.20;;;9.35;;
30896;SDS011;64229;52.246;21.054;2023-03-13T08:31:25;18.23;;;9.18;;
30896;SDS011;64229;52.246;21.054;2023-03-13T08:33:52;23.52;;;9.25;;
30896;SDS011;64229;52.246;21.054;2023-03-13T08:36:19;18.90;;;9.00;;
30896;SDS011;64229;52.246;21.054;2023-03-13T08:38:49;19.35;;;9.45;;
30896;SDS011;64229;52.246;21.054;2023-03-13T08:41:20;21.35;;;9.68;;
30896;SDS011;64229;52.246;21.054;2023-03-13T08:43:47;18.83;;;9.90;;
30896;SDS011;64229;52.246;21.054;2023-03-13T08:46:13;19.30;;;9.68;;
30896;SDS011;64229;52.246;21.054;2023-03-13T08:48:39;24.50;;;10.65;;
30896;SDS011;64229;52.246;21.054;2023-03-13T08:51:07;17.77;;;9.90;;
30896;SDS011;64229;52.246;21.054;2023-03-13T08:53:34;21.65;;;9.25;;
30896;SDS011;64229;52.246;21.054;2023-03-13T08:56:01;20.42;;;10.10;;
30896;SDS011;64229;52.246;21.054;2023-03-13T08:58:28;20.75;;;9.18;;
30896;SDS011;64229;52.246;21.054;2023-03-13T09:01:00;21.55;;;9.25;;
30896;SDS011;64229;52.246;21.054;2023-03-13T09:03:27;19.77;;;9.60;;
30896;SDS011;64229;52.246;21.054;2023-03-13T09:05:52;20.73;;;10.25;;
30896;SDS011;64229;52.246;21.054;2023-03-13T09:08:18;20.70;;;10.00;;
30896;SDS011;64229;52.246;21.054;2023-03-13T09:10:43;18.77;;;8.82;;
30896;SDS011;64229;52.246;21.054;2023-03-13T09:13:08;18.00;;;7.93;;
30896;SDS011;64229;52.246;21.054;2023-03-13T09:15:34;22.00;;;9.55;;
30896;SDS011;64229;52.246;21.054;2023-03-13T09:17:59;19.08;;;8.07;;
30896;SDS011;64229;52.246;21.054;2023-03-13T09:20:25;19.77;;;8.95;;
30896;SDS011;64229;52.246;21.054;2023-03-13T09:22:50;19.35;;;8.88;;
30896;SDS011;64229;52.246;21.054;2023-03-13T09:25:15;18.92;;;8.48;;
30896;SDS011;64229;52.246;21.054;2023-03-13T09:27:41;18.23;;;8.00;;
30896;SDS011;64229;52.246;21.054;2023-03-13T09:30:06;19.58;;;7.80;;
30896;SDS011;64229;52.246;21.054;2023-03-13T09:32:32;15.93;;;8.23;;
30896;SDS011;64229;52.246;21.054;2023-03-13T09:34:58;16.42;;;7.60;;
30896;SDS011;64229;52.246;21.054;2023-03-13T09:37:24;14.57;;;6.78;;
30896;SDS011;64229;52.246;21.054;2023-03-13T09:39:50;14.70;;;6.82;;
30896;SDS011;64229;52.246;21.054;2023-03-13T09:42:19;12.60;;;6.05;;
30896;SDS011;64229;52.246;21.054;2023-03-13T09:44:49;15.20;;;6.80;;
30896;SDS011;64229;52.246;21.054;2023-03-13T09:47:24;17.20;;;7.05;;
30896;SDS011;64229;52.246;21.054;2023-03-13T09:50:00;14.50;;;6.30;;
30896;SDS011;64229;52.246;21.054;2023-03-13T09:52:35;14.88;;;6.53;;
30896;SDS011;64229;52.246;21.054;2023-03-13T09:57:59;11.98;;;5.50;;
30896;SDS011;64229;52.246;21.054;2023-03-13T10:03:06;13.20;;;5.85;;
30896;SDS011;64229;52.246;21.054;2023-03-13T10:05:43;12.95;;;6.18;;
30896;SDS011;64229;52.246;21.054;2023-03-13T10:13:27;15.13;;;5.50;;
30896;SDS011;64229;52.246;21.054;2023-03-13T10:16:00;14.45;;;5.63;;
30896;SDS011;64229;52.246;21.054;2023-03-13T10:18:33;16.70;;;5.50;;
30896;SDS011;64229;52.246;21.054;2023-03-13T10:21:00;13.27;;;5.10;;
30896;SDS011;64229;52.246;21.054;2023-03-13T10:23:45;16.00;;;4.70;;
30896;SDS011;64229;52.246;21.054;2023-03-13T10:26:15;11.23;;;4.70;;
30896;SDS011;64229;52.246;21.054;2023-03-13T10:28:46;10.45;;;4.80;;
30896;SDS011;64229;52.246;21.054;2023-03-13T10:31:23;15.15;;;5.00;;
30896;SDS011;64229;52.246;21.054;2023-03-13T10:34:32;15.40;;;4.78;;
30896;SDS011;64229;52.246;21.054;2023-03-13T10:36:49;10.43;;;4.35;;
30896;SDS011;64229;52.246;21.054;2023-03-13T10:39:21;15.30;;;5.53;;
30896;SDS011;64229;52.246;21.054;2023-03-13T10:41:48;15.10;;;5.43;;
30896;SDS011;64229;52.246;21.054;2023-03-13T10:46:44;13.88;;;5.35;;
30896;SDS011;64229;52.246;21.054;2023-03-13T10:49:20;16.23;;;4.90;;
30896;SDS011;64229;52.246;21.054;2023-03-13T10:51:51;12.70;;;4.97;;
30896;SDS011;64229;52.246;21.054;2023-03-13T10:54:25;13.88;;;4.63;;
30896;SDS011;64229;52.246;21.054;2023-03-13T10:59:46;13.70;;;4.20;;
30896;SDS011;64229;52.246;21.054;2023-03-13T11:04:44;16.15;;;4.68;;
30896;SDS011;64229;52.246;21.054;2023-03-13T11:07:14;11.30;;;4.68;;
30896;SDS011;64229;52.246;21.054;2023-03-13T11:09:58;11.30;;;4.47;;
30896;SDS011;64229;52.246;21.054;2023-03-13T11:12:25;12.15;;;4.75;;
30896;SDS011;64229;52.246;21.054;2023-03-13T11:14:58;11.77;;;4.13;;
30896;SDS011;64229;52.246;21.054;2023-03-13T11:17:29;12.55;;;4.38;;
30896;SDS011;64229;52.246;21.054;2023-03-13T11:20:17;14.60;;;4.20;;
30896;SDS011;64229;52.246;21.054;2023-03-13T11:25:22;12.65;;;4.28;;
30896;SDS011;64229;52.246;21.054;2023-03-13T11:54:06;15.10;;;4.32;;
30896;SDS011;64229;52.246;21.054;2023-03-13T11:56:40;14.98;;;4.72;;
30896;SDS011;64229;52.246;21.054;2023-03-13T12:01:45;16.48;;;4.68;;
30896;SDS011;64229;52.246;21.054;2023-03-13T12:09:53;12.00;;;4.35;;
30896;SDS011;64229;52.246;21.054;2023-03-13T12:12:39;16.58;;;5.28;;
30896;SDS011;64229;52.246;21.054;2023-03-13T12:26:01;14.85;;;4.68;;
30896;SDS011;64229;52.246;21.054;2023-03-13T12:28:38;11.98;;;4.43;;
30896;SDS011;64229;52.246;21.054;2023-03-13T12:44:38;14.75;;;3.88;;
30896;SDS011;64229;52.246;21.054;2023-03-13T12:50:04;12.95;;;3.50;;
30896;SDS011;64229;52.246;21.054;2023-03-13T12:58:41;13.10;;;4.25;;
30896;SDS011;64229;52.246;21.054;2023-03-13T13:01:14;14.90;;;3.50;;
30896;SDS011;64229;52.246;21.054;2023-03-13T13:06:17;11.82;;;3.50;;
30896;SDS011;64229;52.246;21.054;2023-03-13T13:08:46;14.50;;;4.75;;
30896;SDS011;64229;52.246;21.054;2023-03-13T13:16:56;10.68;;;4.38;;
30896;SDS011;64229;52.246;21.054;2023-03-13T13:25:00;13.82;;;4.03;;
30896;SDS011;64229;52.246;21.054;2023-03-13T13:33:42;16.55;;;3.97;;
30896;SDS011;64229;52.246;21.054;2023-03-13T13:35:42;11.80;;;4.30;;
30896;SDS011;64229;52.246;21.054;2023-03-13T13:43:39;11.02;;;3.70;;
30896;SDS011;64229;52.246;21.054;2023-03-13T13:46:22;16.83;;;4.35;;
30896;SDS011;64229;52.246;21.054;2023-03-13T13:49:10;19.27;;;3.97;;
30896;SDS011;64229;52.246;21.054;2023-03-13T13:51:40;12.90;;;4.18;;
30896;SDS011;64229;52.246;21.054;2023-03-13T13:56:55;16.30;;;4.32;;
30896;SDS011;64229;52.246;21.054;2023-03-13T13:59:35;13.25;;;3.95;;
30896;SDS011;64229;52.246;21.054;2023-03-13T14:10:28;19.67;;;4.28;;
30896;SDS011;64229;52.246;21.054;2023-03-13T14:12:54;14.57;;;4.63;;
30896;SDS011;64229;52.246;21.054;2023-03-13T14:18:12;12.82;;;3.67;;
30896;SDS011;64229;52.246;21.054;2023-03-13T14:20:50;15.90;;;4.00;;
30896;SDS011;64229;52.246;21.054;2023-03-13T14:26:26;10.07;;;4.25;;
30896;SDS011;64229;52.246;21.054;2023-03-13T14:28:54;11.77;;;3.85;;
30896;SDS011;64229;52.246;21.054;2023-03-13T14:34:00;11.20;;;3.92;;
30896;SDS011;64229;52.246;21.054;2023-03-13T14:36:28;15.35;;;4.07;;
30896;SDS011;64229;52.246;21.054;2023-03-13T14:38:58;15.00;;;4.10;;
30896;SDS011;64229;52.246;21.054;2023-03-13T14:41:32;12.23;;;3.60;;
30896;SDS011;64229;52.246;21.054;2023-03-13T14:44:12;13.80;;;4.13;;
30896;SDS011;64229;52.246;21.054;2023-03-13T14:46:48;18.45;;;4.30;;
30896;SDS011;64229;52.246;21.054;2023-03-13T14:49:20;15.02;;;4.57;;
30896;SDS011;64229;52.246;21.054;2023-03-13T14:51:57;11.05;;;3.75;;
30896;SDS011;64229;52.246;21.054;2023-03-13T14:54:35;12.68;;;3.60;;
30896;SDS011;64229;52.246;21.054;2023-03-13T14:57:02;14.35;;;4.35;;
30896;SDS011;64229;52.246;21.054;2023-03-13T14:59:34;18.80;;;4.75;;
30896;SDS011;64229;52.246;21.054;2023-03-13T15:02:00;13.02;;;5.05;;
30896;SDS011;64229;52.246;21.054;2023-03-13T15:07:13;8.40;;;3.30;;
30896;SDS011;64229;52.246;21.054;2023-03-13T15:09:42;13.50;;;4.35;;
30896;SDS011;64229;52.246;21.054;2023-03-13T15:12:12;11.45;;;3.40;;
30896;SDS011;64229;52.246;21.054;2023-03-13T15:14:44;14.38;;;4.20;;
30896;SDS011;64229;52.246;21.054;2023-03-13T15:17:12;16.50;;;4.25;;
30896;SDS011;64229;52.246;21.054;2023-03-13T15:19:49;8.77;;;3.53;;
30896;SDS011;64229;52.246;21.054;2023-03-13T15:22:16;14.18;;;4.70;;
30896;SDS011;64229;52.246;21.054;2023-03-13T15:24:43;12.10;;;3.80;;
30896;SDS011;64229;52.246;21.054;2023-03-13T15:27:12;17.25;;;4.07;;
30896;SDS011;64229;52.246;21.054;2023-03-13T15:29:40;11.90;;;3.58;;
30896;SDS011;64229;52.246;21.054;2023-03-13T15:32:07;13.27;;;3.58;;
30896;SDS011;64229;52.246;21.054;2023-03-13T15:34:38;13.25;;;4.25;;
30896;SDS011;64229;52.246;21.054;2023-03-13T15:37:04;12.52;;;3.03;;
30896;SDS011;64229;52.246;21.054;2023-03-13T15:39:29;9.73;;;3.15;;
30896;SDS011;64229;52.246;21.054;2023-03-13T15:41:54;9.23;;;3.15;;
30896;SDS011;64229;52.246;21.054;2023-03-13T15:44:20;12.90;;;3.67;;
30896;SDS011;64229;52.246;21.054;2023-03-13T15:46:45;9.82;;;3.65;;
30896;SDS011;64229;52.246;21.054;2023-03-13T15:49:12;18.42;;;3.50;;
30896;SDS011;64229;52.246;21.054;2023-03-13T15:51:37;13.05;;;3.38;;
30896;SDS011;64229;52.246;21.054;2023-03-13T15:54:03;10.43;;;3.78;;
30896;SDS011;64229;52.246;21.054;2023-03-13T15:56:29;12.02;;;4.35;;
30896;SDS011;64229;52.246;21.054;2023-03-13T15:58:59;18.30;;;5.53;;
30896;SDS011;64229;52.246;21.054;2023-03-13T16:01:25;15.10;;;3.58;;
30896;SDS011;64229;52.246;21.054;2023-03-13T16:03:52;14.48;;;3.45;;
30896;SDS011;64229;52.246;21.054;2023-03-13T16:06:18;11.00;;;3.47;;
30896;SDS011;64229;52.246;21.054;2023-03-13T16:08:45;15.63;;;4.07;;
30896;SDS011;64229;52.246;21.054;2023-03-13T16:11:12;11.63;;;3.72;;
30896;SDS011;64229;52.246;21.054;2023-03-13T16:13:38;11.50;;;3.70;;
30896;SDS011;64229;52.246;21.054;2023-03-13T16:16:13;11.57;;;4.88;;
30896;SDS011;64229;52.246;21.054;2023-03-13T16:18:41;15.30;;;4.05;;
30896;SDS011;64229;52.246;21.054;2023-03-13T16:21:07;11.50;;;3.72;;
30896;SDS011;64229;52.246;21.054;2023-03-13T16:23:34;12.68;;;3.58;;
30896;SDS011;64229;52.246;21.054;2023-03-13T16:26:00;15.32;;;4.45;;
30896;SDS011;64229;52.246;21.054;2023-03-13T16:28:25;14.57;;;3.92;;
30896;SDS011;64229;52.246;21.054;2023-03-13T16:30:50;11.95;;;3.55;;
30896;SDS011;64229;52.246;21.054;2023-03-13T16:33:16;12.25;;;4.18;;
30896;SDS011;64229;52.246;21.054;2023-03-13T16:35:41;19.30;;;6.03;;
30896;SDS011;64229;52.246;21.054;2023-03-13T16:38:08;14.07;;;4.97;;
30896;SDS011;64229;52.246;21.054;2023-03-13T16:40:35;14.20;;;4.75;;
30896;SDS011;64229;52.246;21.054;2023-03-13T16:43:00;11.65;;;3.45;;
30896;SDS011;64229;52.246;21.054;2023-03-13T16:45:26;14.30;;;3.85;;
30896;SDS011;64229;52.246;21.054;2023-03-13T16:47:51;9.55;;;3.40;;